Time;durP1;ratioP1;P1;durP2;ratioP2;P2;SDS_P1;SDS_P2;PMS_P1;PMS_P2;Temp;Humidity;BMP_temperature;BMP_pressure;BME280_temperature;BME280_humidity;BME280_pressure;Samples;Min_cycle;Max_cycle;Signal;HPM_P1;HPM_P2
2022/09/05 00:01:00;;;;;;;1999.90;999.90;;;19.10;99.90;;;;;;6728303;88;20715;-76
2022/09/05 00:11:01;;;;;;;1999.90;999.90;;;19.00;99.90;;;;;;6724194;88;20276;-73
2022/09/05 00:21:18;;;;;;;1999.90;999.90;;;18.90;99.90;;;;;;6727071;88;20290;-75
2022/09/05 00:31:31;;;;;;;1999.90;999.90;;;18.70;99.90;;;;;;6728900;88;20226;-75
2022/09/05 00:41:33;;;;;;;1999.90;999.90;;;18.70;99.90;;;;;;6727306;88;20247;-74
2022/09/05 00:51:47;;;;;;;1999.90;999.90;;;18.50;99.90;;;;;;6727159;88;20219;-75
2022/09/05 01:02:04;;;;;;;1999.90;999.90;;;18.40;99.90;;;;;;6737278;88;20790;-75
2022/09/05 01:12:30;;;;;;;1999.90;999.90;;;18.30;99.90;;;;;;6744169;88;20228;-75
2022/09/05 01:23:02;;;;;;;1999.90;999.90;;;18.30;99.90;;;;;;6732914;88;20202;-74
2022/09/05 01:33:44;;;;;;;1999.90;999.90;;;18.10;99.90;;;;;;6729554;88;20725;-74
2022/09/05 01:44:12;;;;;;;1999.90;999.90;;;18.10;99.90;;;;;;6727264;88;20184;-76
2022/09/05 01:54:32;;;;;;;1999.90;999.90;;;18.10;99.90;;;;;;6733141;88;20222;-75
2022/09/05 02:05:01;;;;;;;1999.90;999.90;;;17.90;99.90;;;;;;6732037;88;20258;-75
2022/09/05 02:15:08;;;;;;;1999.90;999.90;;;17.90;99.90;;;;;;6731512;88;20254;-75
2022/09/05 02:25:26;;;;;;;1999.90;999.90;;;17.70;99.90;;;;;;6731029;88;20287;-75
2022/09/05 02:36:03;;;;;;;1999.90;999.90;;;17.30;99.90;;;;;;6731410;88;20212;-74
2022/09/05 02:46:54;;;;;;;1999.90;999.90;;;17.30;99.90;;;;;;6732613;88;20226;-75
2022/09/05 02:57:04;;;;;;;1999.90;999.90;;;17.20;99.90;;;;;;6726028;88;20192;-74
2022/09/05 03:07:26;;;;;;;1999.90;999.90;;;17.20;99.90;;;;;;6730815;88;20207;-75
2022/09/05 03:27:52;;;;;;;1999.90;999.90;;;17.20;99.90;;;;;;6660031;88;20236;-77
2022/09/05 03:38:29;;;;;;;1999.90;999.90;;;17.10;99.90;;;;;;6643873;88;20190;-77
2022/09/05 03:49:17;;;;;;;1999.90;999.90;;;17.00;99.90;;;;;;6664027;88;20225;-77
2022/09/05 03:59:38;;;;;;;1999.90;999.90;;;17.00;99.90;;;;;;6644079;88;20193;-77
2022/09/05 04:09:47;;;;;;;1999.90;999.90;;;16.90;99.90;;;;;;6644410;88;20222;-77
2022/09/05 04:19:59;;;;;;;1999.90;999.90;;;16.80;99.90;;;;;;6661023;88;20206;-77
2022/09/05 04:30:21;;;;;;;1999.90;999.90;;;16.70;99.90;;;;;;6726558;88;20204;-78
2022/09/05 04:40:39;;;;;;;1999.90;999.90;;;16.60;99.90;;;;;;6731431;88;20211;-77
2022/09/05 04:51:01;;;;;;;1999.90;999.90;;;16.40;99.90;;;;;;6731723;88;20208;-78
2022/09/05 05:01:19;;;;;;;1999.90;999.90;;;16.40;99.90;;;;;;6731369;88;20679;-77
2022/09/05 05:11:23;;;;;;;1999.90;999.90;;;16.40;99.90;;;;;;6731898;88;20209;-78
2022/09/05 05:21:26;;;;;;;1999.90;999.90;;;16.40;99.90;;;;;;6732250;88;20215;-78
2022/09/05 05:31:35;;;;;;;1999.90;999.90;;;16.50;99.90;;;;;;6721776;88;20270;-77
2022/09/05 05:41:50;;;;;;;1999.90;999.90;;;16.70;99.90;;;;;;6736541;88;20554;-78
2022/09/05 05:52:18;;;;;;;1999.90;999.90;;;16.60;99.90;;;;;;6733896;88;20636;-77
2022/09/05 06:02:35;;;;;;;1999.90;999.90;;;16.70;99.90;;;;;;6727732;88;20323;-76
2022/09/05 06:12:47;;;;;;;1999.90;999.90;;;17.00;99.90;;;;;;6729386;88;20173;-77
2022/09/05 06:23:18;;;;;;;1999.90;999.90;;;17.20;99.90;;;;;;6727895;88;20686;-77
2022/09/05 06:33:32;;;;;;;1999.90;999.90;;;17.60;99.90;;;;;;6725508;88;20185;-77
2022/09/05 06:44:04;;;;;;;1999.90;999.90;;;18.30;99.90;;;;;;6726526;88;20754;-77
2022/09/05 06:54:14;;;;;;;1999.90;999.90;;;18.90;99.90;;;;;;6722037;88;20238;-77
2022/09/05 07:04:34;;;;;;;1999.90;999.90;;;19.60;99.90;;;;;;6722651;88;20186;-76
2022/09/05 07:14:58;;;;;;;1999.90;999.90;;;20.20;99.90;;;;;;6721840;88;20248;-77
2022/09/05 07:25:08;;;;;;;1999.90;999.90;;;21.00;99.90;;;;;;6703641;88;20220;-76
2022/09/05 07:35:21;;;;;;;1999.90;999.90;;;21.60;99.90;;;;;;6634843;88;20215;-77
2022/09/05 07:45:25;;;;;;;1999.90;999.90;;;22.10;99.90;;;;;;6638246;88;20254;-76
2022/09/05 07:55:34;;;;;;;1999.90;999.90;;;22.70;99.90;;;;;;6636532;88;20209;-77
2022/09/05 08:05:59;;;;;;;1999.90;999.90;;;23.70;99.90;;;;;;6644520;88;20697;-78
2022/09/05 08:16:01;;;;;;;1999.90;999.90;;;24.20;99.90;;;;;;6639183;88;20256;-75
2022/09/05 08:26:14;;;;;;;1999.90;999.90;;;24.90;99.90;;;;;;6636275;88;20277;-77
2022/09/05 08:36:18;;;;;;;1999.90;999.90;;;24.90;99.90;;;;;;6639561;88;20319;-76
2022/09/05 08:46:34;;;;;;;1999.90;999.90;;;25.40;99.90;;;;;;6650234;88;20201;-76
2022/09/05 08:56:52;;;;;;;1999.90;999.90;;;25.40;99.90;;;;;;6647165;88;20985;-77
2022/09/05 09:07:12;;;;;;;1999.90;999.90;;;26.50;99.90;;;;;;6640782;88;20246;-77
2022/09/05 09:17:44;;;;;;;1999.90;999.90;;;26.90;99.90;;;;;;6633696;88;20226;-76
2022/09/05 09:28:12;;;;;;;1999.90;999.90;;;27.20;99.20;;;;;;6675548;88;20462;-76
2022/09/05 09:38:26;;;;;;;1999.90;999.90;;;27.40;97.50;;;;;;6724861;88;20201;-77
2022/09/05 09:48:39;;;;;;;1999.90;999.90;;;28.10;97.00;;;;;;6726709;88;20226;-77
2022/09/05 09:58:42;;;;;;;1999.90;999.90;;;28.90;94.40;;;;;;6725505;88;20224;-79
2022/09/05 10:09:00;;;;;;;1999.90;999.90;;;29.30;93.10;;;;;;6730115;88;20276;-80
2022/09/05 10:19:01;;;;;;;1999.90;999.90;;;29.60;90.70;;;;;;6730846;88;20248;-79
2022/09/05 10:29:06;;;;;;;1999.90;999.90;;;30.50;86.90;;;;;;6730093;88;20228;-79
2022/09/05 10:39:20;;;;;;;1999.90;999.90;;;30.60;84.20;;;;;;6721224;88;20230;-77
2022/09/05 10:49:26;;;;;;;1999.90;999.90;;;30.50;83.00;;;;;;6726619;88;20290;-77
2022/09/05 10:59:42;;;;;;;1999.90;999.90;;;32.60;78.20;;;;;;6721271;88;20189;-78
2022/09/05 11:09:55;;;;;;;1999.90;999.90;;;31.90;76.90;;;;;;6726943;88;20227;-77
2022/09/05 11:20:10;;;;;;;1999.90;999.90;;;32.80;75.50;;;;;;6725779;88;20681;-76
2022/09/05 11:30:16;;;;;;;1999.90;999.90;;;31.20;74.40;;;;;;6727463;88;20342;-77
2022/09/05 11:40:24;;;;;;;1999.90;999.90;;;31.90;74.50;;;;;;6727926;88;20294;-78
2022/09/05 11:50:35;;;;;;;1999.90;999.90;;;33.70;73.00;;;;;;6728041;88;20216;-76
2022/09/05 12:00:42;;;;;;;1999.90;999.90;;;34.00;71.80;;;;;;6724508;88;20210;-77
2022/09/05 12:11:04;;;;;;;1999.90;999.90;;;35.00;70.10;;;;;;6720379;88;20228;-78
2022/09/05 12:21:36;;;;;;;1999.90;999.90;;;35.30;67.70;;;;;;6723345;88;20248;-74
2022/09/05 12:31:44;;;;;;;1999.90;999.90;;;36.60;65.40;;;;;;6725407;88;20216;-76
2022/09/05 12:42:01;;;;;;;1999.90;999.90;;;36.70;63.40;;;;;;6723744;88;20219;-77
2022/09/05 12:52:11;;;;;;;1999.90;999.90;;;38.10;62.90;;;;;;6719673;88;20242;-77
2022/09/05 13:02:24;;;;;;;1999.90;999.90;;;37.20;60.30;;;;;;6729096;88;20864;-77
2022/09/05 13:12:30;;;;;;;1999.90;999.90;;;36.10;60.70;;;;;;6731182;88;20778;-76
2022/09/05 13:22:31;;;;;;;1999.90;999.90;;;35.30;59.50;;;;;;6721974;88;20213;-77
2022/09/05 13:32:38;;;;;;;1999.90;999.90;;;36.60;59.60;;;;;;6727264;88;20253;-77
2022/09/05 13:42:55;;;;;;;1999.90;999.90;;;36.50;58.60;;;;;;6724335;88;20291;-78
2022/09/05 13:53:01;;;;;;;1999.90;999.90;;;35.70;58.40;;;;;;6732053;88;20602;-77
2022/09/05 14:03:26;;;;;;;1999.90;999.90;;;37.40;57.40;;;;;;6731145;88;20359;-77
2022/09/05 14:14:04;;;;;;;1999.90;999.90;;;36.20;57.60;;;;;;6727540;88;20210;-76
2022/09/05 14:24:23;;;;;;;1999.90;999.90;;;36.70;57.30;;;;;;6735829;88;20194;-77
2022/09/05 14:35:03;;;;;;;1999.90;999.90;;;36.30;55.70;;;;;;6725650;88;20244;-78
2022/09/05 14:45:40;;;;;;;1999.90;999.90;;;35.50;56.80;;;;;;6723902;88;20312;-77
2022/09/05 14:56:08;;;;;;;1999.90;999.90;;;34.60;57.40;;;;;;6724604;88;20201;-77
2022/09/05 15:06:20;;;;;;;1999.90;999.90;;;33.50;58.00;;;;;;6720407;88;20206;-77
2022/09/05 15:16:22;;;;;;;1999.90;999.90;;;34.20;58.60;;;;;;6721854;77;20877;-80
2022/09/05 15:26:23;;;;;;;1999.90;999.90;;;33.70;57.20;;;;;;6693347;87;20779;-81
2022/09/05 15:36:33;;;;;;;1999.90;999.90;;;33.60;58.00;;;;;;6705406;87;20320;-80
2022/09/05 15:46:58;;;;;;;1999.90;999.90;;;33.20;57.80;;;;;;6696749;87;20679;-79
2022/09/05 15:57:04;;;;;;;1999.90;999.90;;;32.80;60.00;;;;;;6667227;89;20320;-80
2022/09/05 16:07:07;;;;;;;1999.90;999.90;;;32.50;58.40;;;;;;6670554;88;20214;-81
2022/09/05 16:17:10;;;;;;;1999.90;999.90;;;31.70;59.70;;;;;;6726942;87;20187;-79
2022/09/05 16:27:16;;;;;;;1999.90;999.90;;;31.50;59.90;;;;;;6711133;87;20321;-79
2022/09/05 16:37:43;;;;;;;1999.90;999.90;;;31.00;61.00;;;;;;6705781;87;20724;-77
2022/09/05 16:48:04;;;;;;;1999.90;999.90;;;30.60;61.50;;;;;;6682607;87;20315;-78
2022/09/05 16:58:17;;;;;;;1999.90;999.90;;;30.10;62.60;;;;;;6684804;87;20195;-77
2022/09/05 17:08:27;;;;;;;1999.90;999.90;;;29.60;62.90;;;;;;6701326;87;20605;-77
2022/09/05 17:18:35;;;;;;;1999.90;999.90;;;29.40;64.50;;;;;;6703699;87;20183;-78
2022/09/05 17:28:52;;;;;;;1999.90;999.90;;;29.20;64.20;;;;;;6682168;87;20612;-79
2022/09/05 17:39:04;;;;;;;1999.90;999.90;;;28.80;64.60;;;;;;6704637;88;20637;-80
2022/09/05 17:49:06;;;;;;;1999.90;999.90;;;28.50;67.60;;;;;;6694241;87;20712;-80
2022/09/05 17:59:25;;;;;;;1999.90;999.90;;;28.10;66.20;;;;;;6699368;87;20338;-80
2022/09/05 18:09:41;;;;;;;1999.90;999.90;;;27.50;68.30;;;;;;6697637;87;20222;-79
2022/09/05 18:19:45;;;;;;;1999.90;999.90;;;27.20;70.20;;;;;;6708459;87;20309;-79
2022/09/05 18:30:09;;;;;;;1999.90;999.90;;;26.70;71.70;;;;;;6699442;87;20183;-79
2022/09/05 18:40:38;;;;;;;1999.90;999.90;;;26.20;73.50;;;;;;6716556;88;20208;-75
2022/09/05 18:50:43;;;;;;;1999.90;999.90;;;25.90;72.90;;;;;;6679706;87;20307;-74
2022/09/05 19:00:45;;;;;;;1999.90;999.90;;;25.90;73.40;;;;;;6686015;87;20711;-74
2022/09/05 19:10:51;;;;;;;1999.90;999.90;;;25.40;74.70;;;;;;6720560;87;20309;-78
2022/09/05 19:20:54;;;;;;;1999.90;999.90;;;25.20;76.20;;;;;;6704247;87;20894;-79
2022/09/05 19:30:56;;;;;;;;;;;24.80;76.50;;;;;;6682840;87;20289;-78
2022/09/05 19:40:57;;;;;;;1999.90;999.90;;;24.90;77.10;;;;;;6705026;87;20066;-78
2022/09/05 19:51:14;;;;;;;1999.90;999.90;;;24.70;78.80;;;;;;6717228;87;21013;-78
2022/09/05 20:01:18;;;;;;;1999.90;999.90;;;24.40;80.10;;;;;;6698839;87;20175;-78
2022/09/05 20:11:25;;;;;;;1999.90;999.90;;;24.10;82.40;;;;;;6700052;87;20288;-78
2022/09/05 20:21:28;;;;;;;1999.90;999.90;;;24.20;82.10;;;;;;6682681;87;20183;-78
2022/09/05 20:31:31;;;;;;;1999.90;999.90;;;23.80;81.90;;;;;;6690374;87;20187;-77
2022/09/05 20:41:33;;;;;;;1999.90;999.90;;;23.70;82.50;;;;;;6680023;87;20191;-77
2022/09/05 20:52:03;;;;;;;1999.90;999.90;;;23.60;84.00;;;;;;6714129;87;20182;-78
2022/09/05 21:02:06;;;;;;;1999.90;999.90;;;23.40;84.00;;;;;;6706053;87;20313;-76
2022/09/05 21:12:08;;;;;;;1999.90;999.90;;;22.90;86.10;;;;;;6669760;87;20212;-77
2022/09/05 21:22:23;;;;;;;1999.90;999.90;;;22.70;87.00;;;;;;6679048;76;20221;-76
2022/09/05 21:32:23;;;;;;;1999.90;999.90;;;22.70;88.70;;;;;;6671400;87;20199;-76
2022/09/05 21:42:24;;;;;;;1999.90;999.90;;;22.50;90.40;;;;;;6682164;87;20196;-76
2022/09/05 21:52:26;;;;;;;1999.90;999.90;;;22.60;90.70;;;;;;6678189;87;20362;-76
2022/09/05 22:02:31;;;;;;;1999.90;999.90;;;22.30;91.70;;;;;;6670275;88;20192;-76
2022/09/05 22:12:34;;;;;;;1999.90;999.90;;;21.90;93.20;;;;;;6670003;88;20232;-76
2022/09/05 22:22:39;;;;;;;1999.90;999.90;;;21.60;95.00;;;;;;6674871;87;20271;-77
2022/09/05 22:32:40;;;;;;;1999.90;999.90;;;21.50;96.00;;;;;;6681890;87;20678;-76
2022/09/05 22:42:40;;;;;;;1999.90;999.90;;;21.50;97.00;;;;;;6670070;88;20209;-75
2022/09/05 22:52:41;;;;;;;1999.90;999.90;;;21.50;97.60;;;;;;6671915;88;20186;-75
2022/09/05 23:02:41;;;;;;;1999.90;999.90;;;21.50;98.30;;;;;;6677456;88;20183;-77
2022/09/05 23:12:42;;;;;;;1999.90;999.90;;;21.40;99.10;;;;;;6667087;87;20185;-76
2022/09/05 23:22:42;;;;;;;1999.90;999.90;;;21.30;99.90;;;;;;6669936;87;20204;-76
2022/09/05 23:32:47;;;;;;;1999.90;999.90;;;21.30;99.90;;;;;;6691225;87;20685;-78
2022/09/05 23:42:56;;;;;;;1999.90;999.90;;;21.20;99.90;;;;;;6684640;87;20220;-77
2022/09/05 23:53:02;;;;;;;1999.90;999.90;;;21.00;99.90;;;;;;6674270;87;20234;-77
